Cleora, Oklahoma
Current Conditions -  °F | °C
As of 11:35 AM on Monday 22 Dec 2014 (Local Time) from KGMJ Reporting Station
Haze Haze  
Wind Chill: 50°   Ceiling: 1500
Heat Index: 50°   Visibility: 5mi
Dew Point: 50°   Wind: 7mph
Humidity: 100%   Direction: 180°S
Pressure: 29.57"   Gusts: NA
Location:  36.651°N, 94.9303°W
Report Text: KGMJ 221735Z AUTO 18006KT 5SM BR SCT008 BKN015 OVC019 10/10 A2957 RMK AO2
Loading
Personal Weather Stations






























Interactive Weather Map New forecast layout! Learn more

10-Day Weather Forecast

Advertisements
Track Severe Weather on mobile